createdAt,value
2022-08-04T00:03:29.509Z,13.77
2022-08-04T00:08:41.415Z,13.55
2022-08-04T00:13:58.019Z,13.77
2022-08-04T00:19:31.144Z,13.67
2022-08-04T00:24:35.994Z,12.35
2022-08-04T00:29:42.124Z,13.20
2022-08-04T00:34:44.939Z,11.90
2022-08-04T00:39:49.009Z,13.50
2022-08-04T00:45:00.930Z,12.73
2022-08-04T00:50:08.181Z,12.30
2022-08-04T00:55:52.548Z,13.18
2022-08-04T01:01:03.984Z,13.82
2022-08-04T01:06:38.756Z,12.90
2022-08-04T01:12:13.411Z,13.07
2022-08-04T01:17:34.522Z,13.32
2022-08-04T01:23:04.886Z,13.68
2022-08-04T01:28:20.267Z,14.60
2022-08-04T01:33:24.213Z,14.88
2022-08-04T01:38:34.905Z,15.30
2022-08-04T01:43:43.292Z,14.50
2022-08-04T01:48:48.023Z,13.02
2022-08-04T01:53:50.870Z,12.95
2022-08-04T01:58:58.039Z,13.15
2022-08-04T02:04:18.572Z,13.97
2022-08-04T02:09:55.394Z,12.23
2022-08-04T02:15:08.128Z,13.48
2022-08-04T02:20:22.077Z,11.35
2022-08-04T02:25:27.609Z,12.38
2022-08-04T02:30:56.231Z,14.70
2022-08-04T02:36:03.606Z,11.77
2022-08-04T02:41:09.494Z,12.40
2022-08-04T02:46:17.895Z,12.07
2022-08-04T02:51:24.555Z,11.95
2022-08-04T02:56:30.586Z,12.97
2022-08-04T03:01:34.214Z,12.07
2022-08-04T03:06:58.496Z,12.10
2022-08-04T03:12:25.965Z,12.60
2022-08-04T03:17:53.305Z,13.23
2022-08-04T03:23:20.834Z,12.67
2022-08-04T03:29:36.067Z,13.27
2022-08-04T03:35:22.452Z,12.27
2022-08-04T03:40:35.879Z,12.25
2022-08-04T03:46:08.720Z,13.48
2022-08-04T03:51:52.000Z,12.23
2022-08-04T03:57:28.707Z,12.55
2022-08-04T04:02:45.834Z,12.30
2022-08-04T04:08:13.782Z,12.15
2022-08-04T04:14:04.798Z,12.55
2022-08-04T04:19:44.753Z,12.33
2022-08-04T04:25:05.483Z,12.05
2022-08-04T04:30:19.354Z,12.20
2022-08-04T04:35:54.657Z,13.05
2022-08-04T04:41:18.189Z,14.48
2022-08-04T04:46:36.168Z,14.67
2022-08-04T04:51:44.583Z,14.50
2022-08-04T04:57:10.970Z,14.65
2022-08-04T05:02:24.381Z,14.95
2022-08-04T05:08:43.725Z,14.65
2022-08-04T05:14:34.835Z,13.47
2022-08-04T05:19:44.231Z,13.85
2022-08-04T05:24:52.401Z,14.23
2022-08-04T05:30:02.757Z,14.32
2022-08-04T05:35:10.959Z,10.65
2022-08-04T05:40:14.420Z,10.40
2022-08-04T05:45:18.971Z,9.88
2022-08-04T05:50:23.320Z,8.98
2022-08-04T05:55:57.341Z,8.88
2022-08-04T06:00:52.852Z,8.25
2022-08-04T06:05:58.073Z,8.60
2022-08-04T06:11:05.971Z,8.73
2022-08-04T06:16:29.052Z,8.27
2022-08-04T06:21:35.445Z,7.03
2022-08-04T06:26:40.677Z,6.63
2022-08-04T06:32:28.332Z,6.47
2022-08-04T06:37:11.304Z,7.35
2022-08-04T06:42:22.593Z,6.57
2022-08-04T06:47:28.841Z,7.75
2022-08-04T06:52:31.855Z,5.57
2022-08-04T06:57:37.178Z,5.37
2022-08-04T07:02:53.719Z,4.88
2022-08-04T07:07:58.799Z,4.68
2022-08-04T07:13:01.974Z,4.47
2022-08-04T07:18:05.957Z,4.10
2022-08-04T07:23:11.707Z,3.90
2022-08-04T07:28:14.664Z,3.50
2022-08-04T07:33:18.422Z,3.47
2022-08-04T07:38:21.299Z,3.40
2022-08-04T07:43:32.653Z,3.47
2022-08-04T07:48:35.904Z,3.03
2022-08-04T07:53:55.261Z,2.80
2022-08-04T07:59:00.686Z,3.20
2022-08-04T08:04:07.966Z,3.15
2022-08-04T08:09:21.119Z,3.10
2022-08-04T08:14:25.023Z,2.97
2022-08-04T08:19:30.016Z,3.25
2022-08-04T08:24:37.465Z,2.50
2022-08-04T08:29:41.152Z,3.45
2022-08-04T08:34:45.931Z,3.50
2022-08-04T08:40:19.848Z,3.30
2022-08-04T08:45:53.498Z,3.50
2022-08-04T08:51:14.126Z,2.95
2022-08-04T08:56:35.753Z,3.80
2022-08-04T09:02:16.291Z,3.80
2022-08-04T09:07:37.345Z,3.47
2022-08-04T09:12:53.447Z,3.28
2022-08-04T09:18:02.534Z,3.20
2022-08-04T09:23:24.458Z,3.17
2022-08-04T09:28:52.908Z,3.40
2022-08-04T09:34:12.578Z,2.90
2022-08-04T09:39:54.498Z,3.10
2022-08-04T09:45:32.682Z,3.72
2022-08-04T09:50:50.287Z,3.28
2022-08-04T09:56:10.268Z,3.35
2022-08-04T10:01:23.972Z,3.37
2022-08-04T10:06:30.414Z,3.38
2022-08-04T10:11:56.069Z,3.50
2022-08-04T10:17:27.463Z,3.22
2022-08-04T10:22:55.945Z,3.50
2022-08-04T10:28:09.446Z,3.60
2022-08-04T10:33:54.416Z,3.35
2022-08-04T10:39:06.402Z,3.70
2022-08-04T10:44:24.957Z,3.70
2022-08-04T10:49:51.298Z,3.60
2022-08-04T10:55:08.924Z,3.43
2022-08-04T11:00:20.338Z,3.58
2022-08-04T11:05:55.494Z,3.97
2022-08-04T11:11:20.233Z,4.07
2022-08-04T11:16:31.125Z,3.85
2022-08-04T11:21:36.340Z,3.80
2022-08-04T11:26:49.286Z,3.78
2022-08-04T11:31:54.005Z,4.03
2022-08-04T11:37:16.349Z,3.97
2022-08-04T11:42:22.057Z,4.00
2022-08-04T11:47:49.641Z,4.13
2022-08-04T11:52:56.320Z,3.97
2022-08-04T11:58:00.029Z,4.05
2022-08-04T12:03:25.723Z,4.18
2022-08-04T12:08:54.560Z,3.90
2022-08-04T12:14:40.012Z,4.10
2022-08-04T12:20:03.728Z,4.03
2022-08-04T12:25:09.400Z,3.95
2022-08-04T12:31:01.315Z,3.80
2022-08-04T12:36:05.281Z,3.92
2022-08-04T12:41:10.963Z,4.07
2022-08-04T12:46:26.335Z,3.70
2022-08-04T12:52:06.820Z,3.83
2022-08-04T12:56:57.999Z,4.28
2022-08-04T13:02:06.847Z,3.97
2022-08-04T13:07:15.989Z,3.87
2022-08-04T13:12:27.395Z,3.97
2022-08-04T13:18:14.868Z,4.10
2022-08-04T13:23:21.857Z,3.67
2022-08-04T13:28:28.018Z,3.95
2022-08-04T13:33:36.998Z,3.80
2022-08-04T13:38:47.321Z,4.13
2022-08-04T13:44:19.702Z,4.20
2022-08-04T13:49:48.460Z,3.90
2022-08-04T13:54:48.046Z,3.83
2022-08-04T14:00:05.717Z,3.87
2022-08-04T14:05:27.005Z,3.55
2022-08-04T14:10:31.140Z,3.78
2022-08-04T14:16:01.511Z,3.97
2022-08-04T14:21:15.512Z,3.55
2022-08-04T14:26:31.309Z,3.77
2022-08-04T14:31:36.590Z,3.80
2022-08-04T14:37:17.633Z,3.72
2022-08-04T14:42:41.875Z,3.88
2022-08-04T14:47:51.870Z,4.10
2022-08-04T14:53:07.717Z,3.63
2022-08-04T14:58:38.359Z,3.80
2022-08-04T15:03:50.574Z,3.78
2022-08-04T15:09:02.648Z,3.85
2022-08-04T15:14:06.257Z,3.25
2022-08-04T15:19:09.408Z,3.70
2022-08-04T15:24:12.697Z,3.75
2022-08-04T15:29:21.089Z,3.58
2022-08-04T15:34:24.561Z,4.10
2022-08-04T15:39:36.376Z,3.60
2022-08-04T15:45:11.034Z,3.23
2022-08-04T15:50:14.359Z,3.85
2022-08-04T15:55:40.463Z,3.55
2022-08-04T16:00:49.627Z,3.60
2022-08-04T16:05:52.570Z,3.80
2022-08-04T16:10:55.603Z,3.80
2022-08-04T16:16:03.453Z,3.33
2022-08-04T16:21:18.246Z,3.45
2022-08-04T16:26:42.354Z,3.45
2022-08-04T16:32:10.883Z,3.60
2022-08-04T16:37:14.497Z,3.50
2022-08-04T16:42:33.358Z,3.60
2022-08-04T16:47:48.533Z,3.50
2022-08-04T16:52:53.762Z,3.38
2022-08-04T16:57:59.640Z,3.42
2022-08-04T17:03:06.591Z,3.50
2022-08-04T17:14:03.149Z,3.67
2022-08-04T17:19:03.350Z,3.65
2022-08-04T17:24:13.009Z,4.00
2022-08-04T17:29:19.953Z,3.80
2022-08-04T17:34:26.348Z,3.80
2022-08-04T17:39:34.975Z,3.63
2022-08-04T17:44:41.214Z,4.07
2022-08-04T17:49:53.363Z,4.10
2022-08-04T17:55:02.612Z,4.23
2022-08-04T18:00:06.697Z,4.20
2022-08-04T18:05:14.504Z,3.97
2022-08-04T18:10:33.109Z,4.15
2022-08-04T18:15:44.439Z,4.35
2022-08-04T18:20:50.031Z,4.00
2022-08-04T18:25:53.391Z,4.15
2022-08-04T18:30:56.440Z,4.47
2022-08-04T18:36:33.752Z,4.00
2022-08-04T18:41:22.182Z,4.50
2022-08-04T18:46:26.963Z,4.50
2022-08-04T18:51:30.641Z,4.78
2022-08-04T18:56:35.237Z,4.90
2022-08-04T19:02:13.097Z,4.60
2022-08-04T19:08:01.528Z,4.80
2022-08-04T19:12:30.026Z,4.90
2022-08-04T19:17:52.658Z,5.45
2022-08-04T19:24:11.144Z,5.20
2022-08-04T19:28:19.320Z,5.20
2022-08-04T19:33:25.207Z,5.00
2022-08-04T19:38:29.829Z,4.87
2022-08-04T19:43:33.829Z,5.00
2022-08-04T19:48:37.941Z,5.25
2022-08-04T19:53:43.069Z,4.97
2022-08-04T19:58:48.130Z,4.88
2022-08-04T20:04:07.966Z,4.83
2022-08-04T20:09:25.381Z,5.20
2022-08-04T20:14:31.485Z,5.40
2022-08-04T20:19:36.066Z,4.85
2022-08-04T20:24:45.983Z,4.68
2022-08-04T20:29:55.648Z,4.70
2022-08-04T20:34:59.468Z,4.53
2022-08-04T20:40:02.623Z,4.68
2022-08-04T20:45:08.571Z,4.38
2022-08-04T20:50:19.459Z,4.30
2022-08-04T20:55:33.284Z,4.07
2022-08-04T21:00:57.075Z,4.57
2022-08-04T21:06:00.100Z,5.00
2022-08-04T21:11:06.892Z,5.03
2022-08-04T21:16:11.878Z,4.72
2022-08-04T21:21:35.349Z,4.70
2022-08-04T21:26:38.648Z,4.72
2022-08-04T21:31:50.165Z,5.20
2022-08-04T21:36:53.978Z,4.80
2022-08-04T21:42:28.754Z,4.47
2022-08-04T21:47:45.845Z,4.93
2022-08-04T21:52:44.178Z,5.07
2022-08-04T21:57:49.524Z,5.00
2022-08-04T22:02:52.949Z,4.78
2022-08-04T22:07:56.570Z,4.65
2022-08-04T22:12:59.437Z,5.30
2022-08-04T22:18:05.949Z,5.22
2022-08-04T22:28:31.449Z,5.07
2022-08-04T22:33:54.704Z,5.55
2022-08-04T22:39:06.515Z,5.60
2022-08-04T22:44:15.077Z,5.70
2022-08-04T22:49:18.251Z,6.05
2022-08-04T22:54:29.769Z,5.70
2022-08-04T22:59:34.560Z,5.80
2022-08-04T23:04:37.750Z,5.83
2022-08-04T23:09:50.061Z,5.88
2022-08-04T23:14:57.972Z,6.50
2022-08-04T23:20:00.928Z,6.50
2022-08-04T23:25:04.012Z,6.70
2022-08-04T23:30:07.861Z,6.00
2022-08-04T23:35:10.750Z,6.28
2022-08-04T23:40:33.218Z,5.97
2022-08-04T23:46:06.512Z,6.22
2022-08-04T23:51:14.722Z,6.13
2022-08-04T23:56:19.577Z,5.80
